createdAt,value
2019-04-05T00:00:06.419Z,498
2019-04-05T00:01:13.623Z,499
2019-04-05T00:02:20.841Z,498
2019-04-05T00:03:27.773Z,497
2019-04-05T00:04:34.975Z,496
2019-04-05T00:05:42.176Z,490
2019-04-05T00:06:49.411Z,486
2019-04-05T00:07:56.614Z,488
2019-04-05T00:09:03.819Z,490
2019-04-05T00:10:11.019Z,492
2019-04-05T00:11:18.223Z,493
2019-04-05T00:12:25.155Z,493
2019-04-05T00:13:32.352Z,492
2019-04-05T00:14:39.552Z,490
2019-04-05T00:15:46.476Z,487
2019-04-05T00:16:53.716Z,485
2019-04-05T00:18:00.917Z,483
2019-04-05T00:19:08.122Z,483
2019-04-05T00:20:15.059Z,484
2019-04-05T00:21:22.263Z,485
2019-04-05T00:22:29.495Z,486
2019-04-05T00:23:36.426Z,491
2019-04-05T00:24:43.638Z,489
2019-04-05T00:25:50.829Z,490
2019-04-05T00:26:57.764Z,489
2019-04-05T00:28:04.696Z,490
2019-04-05T00:29:11.605Z,490
2019-04-05T00:30:18.805Z,491
2019-04-05T00:31:26.007Z,490
2019-04-05T00:32:33.220Z,491
2019-04-05T00:33:40.150Z,492
2019-04-05T00:34:47.355Z,493
2019-04-05T00:35:54.561Z,490
2019-04-05T00:37:01.770Z,490
2019-04-05T00:38:08.973Z,491
2019-04-05T00:39:16.176Z,492
2019-04-05T00:40:23.382Z,492
2019-04-05T00:41:33.581Z,492
2019-04-05T00:42:40.784Z,492
2019-04-05T00:43:47.990Z,493
2019-04-05T00:44:54.921Z,493
2019-04-05T00:46:01.854Z,493
2019-04-05T00:47:08.777Z,493
2019-04-05T00:48:15.980Z,494
2019-04-05T00:49:22.932Z,495
2019-04-05T00:50:30.124Z,497
2019-04-05T00:51:37.325Z,497
2019-04-05T00:52:44.529Z,496
2019-04-05T00:53:51.464Z,498
2019-04-05T00:54:58.663Z,499
2019-04-05T00:56:05.906Z,500
2019-04-05T00:57:13.111Z,502
2019-04-05T00:58:20.038Z,503
2019-04-05T00:59:27.243Z,502
2019-04-05T01:00:34.450Z,503
2019-04-05T01:01:41.687Z,504
2019-04-05T01:02:48.877Z,505
2019-04-05T01:03:56.084Z,506
2019-04-05T01:05:03.282Z,506
2019-04-05T01:06:10.211Z,508
2019-04-05T01:07:17.417Z,508
2019-04-05T01:08:24.311Z,509
2019-04-05T01:09:31.513Z,509
2019-04-05T01:10:38.717Z,509
2019-04-05T01:11:45.652Z,509
2019-04-05T01:12:52.579Z,509
2019-04-05T01:13:59.780Z,509
2019-04-05T01:15:06.437Z,510
2019-04-05T01:16:13.367Z,510
2019-04-05T01:17:26.228Z,509
2019-04-05T01:18:33.149Z,508
2019-04-05T01:19:40.349Z,506
2019-04-05T01:20:47.561Z,507
2019-04-05T01:21:54.484Z,507
2019-04-05T01:23:01.421Z,506
2019-04-05T01:24:08.663Z,507
2019-04-05T01:25:15.883Z,510
2019-04-05T01:26:22.819Z,511
2019-04-05T01:27:29.727Z,511
2019-04-05T01:28:36.923Z,510
2019-04-05T01:29:44.126Z,511
2019-04-05T01:30:51.327Z,510
2019-04-05T01:31:58.573Z,511
2019-04-05T01:33:05.811Z,511
2019-04-05T01:34:13.018Z,511
2019-04-05T01:35:20.217Z,510
2019-04-05T01:36:27.140Z,510
2019-04-05T01:37:34.342Z,511
2019-04-05T01:38:41.544Z,509
2019-04-05T01:39:48.745Z,509
2019-04-05T01:40:55.946Z,509
2019-04-05T01:42:03.146Z,510
2019-04-05T01:43:10.342Z,510
2019-04-05T01:44:17.549Z,510
2019-04-05T01:45:24.749Z,509
2019-04-05T01:46:31.948Z,510
2019-04-05T01:47:39.152Z,510
2019-04-05T01:48:45.815Z,510
2019-04-05T01:49:52.755Z,510
2019-04-05T01:50:59.959Z,510
2019-04-05T01:52:07.157Z,509
2019-04-05T01:53:14.360Z,510
2019-04-05T01:54:21.565Z,509
2019-04-05T01:55:28.760Z,510
2019-04-05T01:56:35.684Z,511
2019-04-05T01:57:42.888Z,510
2019-04-05T01:58:50.088Z,511
2019-04-05T01:59:57.289Z,510
2019-04-05T02:01:04.494Z,511
2019-04-05T02:02:11.697Z,511
2019-04-05T02:03:18.939Z,511
2019-04-05T02:04:25.872Z,511
2019-04-05T02:05:33.080Z,511
2019-04-05T02:06:40.280Z,510
2019-04-05T02:07:47.481Z,510
2019-04-05T02:08:54.411Z,511
2019-04-05T02:10:01.740Z,511
2019-04-05T02:11:08.401Z,511
2019-04-05T02:12:15.606Z,510
2019-04-05T02:13:22.807Z,511
2019-04-05T02:14:30.013Z,510
2019-04-05T02:15:37.213Z,510
2019-04-05T02:16:44.408Z,510
2019-04-05T02:17:51.612Z,511
2019-04-05T02:18:58.814Z,510
2019-04-05T02:20:06.015Z,510
2019-04-05T02:21:12.949Z,510
2019-04-05T02:22:20.147Z,510
2019-04-05T02:23:27.353Z,510
2019-04-05T02:24:34.281Z,510
2019-04-05T02:25:41.482Z,510
2019-04-05T02:26:48.687Z,509
2019-04-05T02:27:55.891Z,510
2019-04-05T02:29:03.091Z,510
2019-04-05T02:30:10.313Z,510
2019-04-05T02:31:17.517Z,510
2019-04-05T02:32:24.723Z,510
2019-04-05T02:33:31.925Z,510
2019-04-05T02:34:38.847Z,511
2019-04-05T02:35:46.042Z,510
2019-04-05T02:36:52.974Z,509
2019-04-05T02:38:00.183Z,509
2019-04-05T22:00:06.277Z,510
2019-04-05T22:01:13.477Z,505
2019-04-05T22:02:20.685Z,505
2019-04-05T22:03:27.904Z,504
2019-04-05T22:04:35.104Z,503
2019-04-05T22:05:42.305Z,502
2019-04-05T22:06:49.507Z,502
2019-04-05T22:07:56.730Z,503
2019-04-05T22:09:03.648Z,501
2019-04-05T22:10:10.848Z,502
2019-04-05T22:11:18.056Z,502
2019-04-05T22:12:25.258Z,501
2019-04-05T22:13:32.462Z,501
2019-04-05T22:14:39.666Z,500
2019-04-05T22:15:46.870Z,501
2019-04-05T22:16:53.798Z,501
2019-04-05T22:18:01.021Z,501
2019-04-05T22:19:08.230Z,501
2019-04-05T22:20:15.423Z,501
2019-04-05T22:21:22.840Z,500
2019-04-05T22:22:30.046Z,501
2019-04-05T22:23:37.250Z,501
2019-04-05T22:24:44.450Z,501
2019-04-05T22:25:51.677Z,500
2019-04-05T22:26:58.882Z,500
2019-04-05T22:28:06.082Z,500
2019-04-05T22:29:13.291Z,500
2019-04-05T22:30:20.496Z,500
2019-04-05T22:31:27.697Z,501
2019-04-05T22:32:34.666Z,500
2019-04-05T22:33:41.601Z,500
2019-04-05T22:34:48.829Z,501
2019-04-05T22:35:56.033Z,500
2019-04-05T22:37:03.229Z,500
2019-04-05T22:38:10.431Z,500
2019-04-05T22:39:17.632Z,500
2019-04-05T22:40:24.568Z,500
2019-04-05T22:41:31.768Z,501
2019-04-05T22:42:38.975Z,500
2019-04-05T22:43:45.899Z,500
2019-04-05T22:44:52.825Z,500
2019-04-05T22:46:00.082Z,500
2019-04-05T22:47:07.286Z,500
2019-04-05T22:48:14.486Z,500
2019-04-05T22:49:21.690Z,500
2019-04-05T22:50:28.619Z,500
2019-04-05T22:51:35.822Z,499
2019-04-05T22:52:43.028Z,500
2019-04-05T22:53:49.992Z,500
2019-04-05T22:54:57.190Z,499
2019-04-05T22:56:04.403Z,499
2019-04-05T22:57:11.606Z,499
2019-04-05T22:58:18.834Z,500
2019-04-05T22:59:25.811Z,500
2019-04-05T23:00:32.750Z,500
2019-04-05T23:01:39.686Z,500
2019-04-05T23:02:46.899Z,500
2019-04-05T23:03:54.099Z,499
2019-04-05T23:05:02.045Z,500
2019-04-05T23:06:09.241Z,500
2019-04-05T23:07:16.176Z,499
2019-04-05T23:08:23.385Z,500
2019-04-05T23:09:30.598Z,500
2019-04-05T23:10:37.807Z,500
2019-04-05T23:11:45.008Z,500
2019-04-05T23:12:51.933Z,500
2019-04-05T23:13:59.137Z,500
2019-04-05T23:15:06.066Z,500
2019-04-05T23:16:13.263Z,500
2019-04-05T23:17:20.206Z,499
2019-04-05T23:18:27.407Z,500
2019-04-05T23:19:34.608Z,501
2019-04-05T23:20:41.531Z,500
2019-04-05T23:21:48.739Z,499
2019-04-05T23:22:55.940Z,500
2019-04-05T23:24:03.145Z,499
2019-04-05T23:25:21.148Z,500
2019-04-05T23:26:29.674Z,500
2019-04-05T23:27:36.873Z,500
2019-04-05T23:28:44.072Z,500
2019-04-05T23:29:51.269Z,500
2019-04-05T23:30:58.464Z,500
2019-04-05T23:32:05.390Z,500
2019-04-05T23:33:12.594Z,500
2019-04-05T23:34:19.798Z,500
2019-04-05T23:35:27.001Z,499
2019-04-05T23:36:33.651Z,500
2019-04-05T23:37:40.848Z,499
2019-04-05T23:38:48.051Z,499
2019-04-05T23:39:54.977Z,500
2019-04-05T23:41:04.787Z,499
2019-04-05T23:42:11.990Z,500
2019-04-05T23:43:19.190Z,499
2019-04-05T23:44:26.121Z,500
2019-04-05T23:45:33.329Z,500
2019-04-05T23:46:40.533Z,499
2019-04-05T23:47:47.750Z,500
2019-04-05T23:48:54.955Z,500
2019-04-05T23:50:01.887Z,499
2019-04-05T23:51:09.082Z,499
2019-04-05T23:52:16.287Z,499
2019-04-05T23:53:23.494Z,499
2019-04-05T23:54:30.419Z,499
2019-04-05T23:55:37.635Z,500
2019-04-05T23:56:44.556Z,499
2019-04-05T23:57:51.492Z,499
2019-04-05T23:58:58.457Z,500
